createdAt,value
2019-03-05T00:01:24.362Z,8.73
2019-03-05T00:03:52.640Z,8.10
2019-03-05T00:06:21.002Z,7.90
2019-03-05T00:08:49.262Z,9.50
2019-03-05T00:11:17.616Z,8.90
2019-03-05T00:13:45.885Z,7.10
2019-03-05T00:16:14.322Z,10.70
2019-03-05T00:18:42.617Z,11.93
2019-03-05T00:21:10.977Z,15.17
2019-03-05T00:23:47.010Z,9.30
2019-03-05T00:26:16.586Z,8.60
2019-03-05T00:28:54.027Z,12.47
2019-03-05T00:31:28.284Z,7.93
2019-03-05T00:34:05.398Z,11.07
2019-03-05T00:36:43.285Z,10.17
2019-03-05T00:39:26.743Z,9.30
2019-03-05T00:42:29.563Z,12.10
2019-03-05T00:45:16.118Z,9.57
2019-03-05T00:48:02.747Z,9.77
2019-03-05T00:50:39.903Z,12.23
2019-03-05T00:53:23.143Z,12.10
2019-03-05T00:56:09.122Z,6.90
2019-03-05T00:58:43.582Z,11.20
2019-03-05T01:01:29.985Z,7.03
2019-03-05T01:04:19.441Z,12.23
2019-03-05T01:06:47.817Z,11.37
2019-03-05T01:09:17.256Z,9.97
2019-03-05T01:11:45.515Z,5.67
2019-03-05T01:14:14.443Z,8.10
2019-03-05T01:16:42.752Z,8.73
2019-03-05T01:19:11.046Z,6.70
2019-03-05T01:21:39.310Z,3.97
2019-03-05T01:24:07.606Z,12.80
2019-03-05T01:26:35.942Z,11.73
2019-03-05T01:29:04.188Z,10.03
2019-03-05T01:31:40.076Z,9.00
2019-03-05T01:34:10.009Z,7.63
2019-03-05T01:36:58.186Z,6.30
2019-03-05T01:39:46.031Z,9.73
2019-03-05T01:42:14.415Z,13.77
2019-03-05T01:44:43.065Z,10.53
2019-03-05T01:47:11.327Z,8.73
2019-03-05T01:49:39.619Z,7.93
2019-03-05T01:52:07.971Z,14.07
2019-03-05T01:54:36.277Z,13.43
2019-03-05T01:57:04.542Z,11.90
2019-03-05T01:59:32.843Z,3.83
2019-03-05T02:02:01.101Z,4.13
2019-03-05T02:04:29.380Z,9.13
2019-03-05T02:06:57.637Z,13.77
2019-03-05T02:09:25.937Z,9.97
2019-03-05T02:11:54.261Z,9.10
2019-03-05T02:14:22.535Z,8.53
2019-03-05T02:16:50.788Z,9.83
2019-03-05T02:19:38.921Z,6.87
2019-03-05T02:22:21.971Z,7.73
2019-03-05T02:25:14.526Z,11.33
2019-03-05T02:28:05.261Z,9.93
2019-03-05T02:30:39.705Z,9.60
2019-03-05T02:33:45.649Z,8.37
2019-03-05T02:36:33.401Z,7.90
2019-03-05T02:39:28.609Z,9.43
2019-03-05T02:42:18.171Z,5.83
2019-03-05T02:45:01.571Z,7.53
2019-03-05T02:48:05.973Z,9.07
2019-03-05T02:50:40.191Z,6.63
2019-03-05T02:53:32.407Z,11.33
2019-03-05T02:56:06.546Z,10.73
2019-03-05T02:58:33.912Z,11.23
2019-03-05T03:01:03.813Z,7.37
2019-03-05T03:03:33.701Z,5.10
2019-03-05T03:06:03.668Z,6.67
2019-03-05T03:08:31.956Z,7.07
2019-03-05T03:11:00.382Z,4.97
2019-03-05T03:13:28.684Z,4.30
2019-03-05T03:15:57.041Z,3.97
2019-03-05T03:18:25.312Z,5.17
2019-03-05T03:20:53.587Z,4.07
2019-03-05T03:23:21.966Z,3.13
2019-03-05T03:25:50.221Z,4.37
2019-03-05T03:28:18.487Z,4.73
2019-03-05T03:30:46.767Z,4.47
2019-03-05T03:33:15.097Z,5.83
2019-03-05T03:35:43.404Z,11.67
2019-03-05T03:38:11.690Z,7.20
2019-03-05T03:40:39.946Z,7.87
2019-03-05T03:43:08.236Z,5.27
2019-03-05T03:45:36.523Z,6.73
2019-03-05T03:48:04.805Z,8.80
2019-03-05T03:50:33.075Z,5.47
2019-03-05T03:53:01.356Z,7.60
2019-03-05T03:55:29.606Z,5.57
2019-03-05T03:57:57.954Z,7.27
2019-03-05T04:00:26.302Z,5.80
2019-03-05T04:02:54.626Z,5.67
2019-03-05T04:05:22.921Z,9.13
2019-03-05T04:07:51.215Z,8.47
2019-03-05T04:10:19.580Z,7.67
2019-03-05T04:12:47.839Z,6.00
2019-03-05T04:15:17.834Z,4.93
2019-03-05T04:17:46.105Z,9.33
2019-03-05T04:20:17.359Z,6.20
2019-03-05T04:22:45.694Z,4.27
2019-03-05T04:25:14.063Z,5.60
2019-03-05T04:27:42.321Z,6.33
2019-03-05T04:30:12.746Z,7.57
2019-03-05T04:32:41.001Z,8.17
2019-03-05T04:35:13.288Z,6.90
2019-03-05T04:37:41.602Z,5.93
2019-03-05T04:40:11.250Z,10.83
2019-03-05T04:42:39.584Z,5.33
2019-03-05T04:45:31.319Z,6.80
2019-03-05T04:47:59.610Z,7.27
2019-03-05T04:50:29.520Z,5.83
2019-03-05T04:52:57.803Z,6.50
2019-03-05T04:55:26.157Z,6.03
2019-03-05T04:57:54.409Z,7.70
2019-03-05T05:00:23.364Z,6.70
2019-03-05T05:02:51.624Z,6.13
2019-03-05T05:05:20.034Z,4.77
2019-03-05T05:07:48.271Z,6.77
2019-03-05T05:10:16.591Z,7.67
2019-03-05T05:12:44.847Z,4.93
2019-03-05T05:15:29.608Z,8.77
2019-03-05T05:17:57.864Z,7.00
2019-03-05T05:20:26.200Z,6.47
2019-03-05T05:22:54.598Z,6.67
2019-03-05T05:25:22.891Z,10.27
2019-03-05T05:27:51.194Z,5.47
2019-03-05T05:30:28.597Z,3.57
2019-03-05T05:32:56.868Z,4.83
2019-03-05T05:35:25.179Z,3.63
2019-03-05T05:37:53.426Z,3.87
2019-03-05T05:40:32.426Z,5.07
2019-03-05T05:43:00.832Z,3.37
2019-03-05T05:45:32.297Z,3.27
2019-03-05T05:48:00.561Z,5.57
2019-03-05T05:50:28.826Z,4.07
2019-03-05T05:52:57.117Z,7.20
2019-03-05T05:55:25.365Z,3.40
2019-03-05T05:57:53.651Z,6.63
2019-03-05T06:00:21.889Z,3.50
2019-03-05T06:02:50.177Z,3.90
2019-03-05T06:05:18.435Z,5.73
2019-03-05T06:07:46.711Z,4.03
2019-03-05T06:10:14.974Z,2.60
2019-03-05T06:12:43.276Z,4.77
2019-03-05T06:15:12.743Z,4.13
2019-03-05T06:17:41.021Z,3.43
2019-03-05T06:20:16.369Z,4.47
2019-03-05T06:22:44.740Z,4.80
2019-03-05T06:25:15.844Z,5.27
2019-03-05T06:27:44.234Z,3.43
2019-03-05T06:30:20.984Z,6.07
2019-03-05T06:32:49.264Z,8.20
2019-03-05T06:35:17.516Z,6.03
2019-03-05T06:37:45.775Z,3.73
2019-03-05T06:40:18.524Z,5.10
2019-03-05T06:42:46.813Z,6.47
2019-03-05T06:45:19.291Z,6.77
2019-03-05T06:47:47.631Z,6.63
2019-03-05T06:50:21.850Z,3.33
2019-03-05T06:52:50.316Z,4.00
2019-03-05T06:55:19.538Z,3.10
2019-03-05T06:57:47.795Z,4.23
2019-03-05T07:00:34.894Z,3.00
2019-03-05T07:03:04.257Z,3.63
2019-03-05T07:06:08.687Z,3.27
2019-03-05T07:08:39.021Z,1.57
2019-03-05T07:11:34.143Z,2.87
2019-03-05T07:14:08.411Z,3.80
2019-03-05T07:16:59.110Z,3.03
2019-03-05T07:19:30.156Z,2.53
2019-03-05T07:22:10.552Z,3.77
2019-03-05T07:24:48.144Z,3.10
2019-03-05T07:27:19.648Z,2.77
2019-03-05T07:29:47.964Z,2.97
2019-03-05T07:32:16.296Z,2.63
2019-03-05T07:34:46.209Z,1.77
2019-03-05T07:37:14.469Z,3.30
2019-03-05T07:39:42.725Z,1.73
2019-03-05T07:42:11.316Z,3.73
2019-03-05T07:44:39.598Z,2.43
2019-03-05T07:47:07.870Z,1.40
2019-03-05T07:49:43.893Z,1.03
2019-03-05T07:52:06.145Z,1.37
2019-03-05T07:54:34.408Z,1.40
2019-03-05T07:57:02.720Z,1.33
2019-03-05T07:59:30.968Z,1.33
2019-03-05T08:01:59.279Z,1.27
2019-03-05T08:04:27.594Z,1.10
2019-03-05T08:06:55.946Z,1.17
2019-03-05T08:09:29.046Z,1.70
2019-03-05T08:12:00.571Z,1.37
2019-03-05T08:14:40.863Z,2.53
2019-03-05T08:17:09.243Z,1.70
2019-03-05T08:19:37.561Z,4.53
2019-03-05T08:22:08.711Z,3.20
2019-03-05T08:24:36.180Z,4.17
2019-03-05T08:27:04.466Z,3.10
2019-03-05T08:29:32.745Z,5.20
2019-03-05T08:32:01.098Z,2.90
2019-03-05T08:34:29.451Z,2.33
2019-03-05T08:36:57.759Z,10.27
2019-03-05T08:39:26.020Z,3.27
2019-03-05T08:41:54.334Z,1.67
2019-03-05T08:44:22.654Z,1.40
2019-03-05T08:46:50.914Z,1.20
2019-03-05T08:49:19.184Z,1.30
2019-03-05T08:51:47.464Z,4.77
2019-03-05T08:54:15.730Z,1.50
2019-03-05T08:56:44.056Z,3.60
2019-03-05T08:59:12.350Z,1.80
2019-03-05T09:01:40.634Z,2.17
2019-03-05T09:04:08.981Z,1.97
2019-03-05T09:06:37.261Z,1.23
2019-03-05T09:09:07.258Z,1.00
2019-03-05T09:11:35.517Z,0.63
2019-03-05T09:14:03.886Z,4.20
2019-03-05T09:16:32.143Z,7.07
2019-03-05T09:19:00.438Z,6.23
2019-03-05T09:21:28.691Z,26.80
2019-03-05T09:23:57.000Z,1.77
2019-03-05T09:26:25.308Z,1.07
2019-03-05T09:28:53.601Z,0.93
2019-03-05T09:31:21.858Z,0.90
2019-03-05T09:33:50.236Z,2.00
2019-03-05T09:36:18.505Z,2.10
2019-03-05T09:38:46.823Z,0.60
2019-03-05T09:41:15.139Z,1.10
2019-03-05T09:43:43.414Z,2.03
2019-03-05T09:46:11.699Z,1.03
2019-03-05T09:48:39.971Z,1.40
2019-03-05T09:51:08.329Z,1.23
2019-03-05T09:53:36.638Z,2.73
2019-03-05T09:56:05.788Z,1.40
2019-03-05T09:58:34.138Z,2.13
2019-03-05T10:01:02.433Z,1.67
2019-03-05T10:03:30.672Z,1.70
2019-03-05T10:05:58.975Z,2.70
2019-03-05T10:08:32.435Z,2.40
2019-03-05T10:10:57.235Z,1.73
2019-03-05T10:13:25.497Z,3.83
2019-03-05T10:15:53.784Z,3.60
2019-03-05T10:18:22.030Z,2.17
2019-03-05T10:20:50.344Z,3.57
2019-03-05T10:23:18.685Z,2.20
2019-03-05T10:25:46.975Z,6.37
2019-03-05T10:28:15.325Z,3.00
2019-03-05T10:30:43.877Z,5.17
2019-03-05T10:33:13.000Z,3.23
2019-03-05T10:35:41.261Z,3.63
2019-03-05T10:38:10.162Z,4.27
2019-03-05T10:40:44.843Z,2.87
2019-03-05T10:43:15.470Z,2.17
2019-03-05T10:45:48.383Z,4.50
2019-03-05T10:48:18.251Z,2.87
2019-03-05T10:50:46.730Z,4.10
2019-03-05T10:53:15.066Z,3.57
2019-03-05T10:55:43.339Z,3.10
2019-03-05T10:58:12.563Z,3.03
2019-03-05T11:00:44.145Z,3.60
2019-03-05T11:03:12.765Z,4.73
2019-03-05T11:05:41.407Z,6.37
2019-03-05T11:08:12.159Z,5.83
2019-03-05T11:10:41.223Z,7.90
2019-03-05T11:13:11.039Z,5.77
2019-03-05T11:15:39.293Z,4.53
2019-03-05T11:18:08.431Z,4.50
2019-03-05T11:20:37.085Z,5.63
2019-03-05T11:23:06.114Z,5.33
2019-03-05T11:25:34.367Z,5.33
2019-03-05T11:28:02.650Z,4.07
2019-03-05T11:30:36.451Z,5.03
2019-03-05T11:33:03.535Z,7.60
2019-03-05T11:35:32.826Z,5.90
2019-03-05T11:38:01.145Z,6.00
2019-03-05T11:40:29.398Z,4.10
2019-03-05T11:42:57.684Z,4.93
2019-03-05T11:45:29.375Z,3.83
2019-03-05T11:47:57.720Z,4.00
2019-03-05T11:50:26.084Z,5.20
2019-03-05T11:52:54.502Z,5.60
2019-03-05T11:55:29.564Z,5.13
2019-03-05T11:57:57.843Z,5.90
2019-03-05T12:00:35.445Z,7.87
2019-03-05T12:03:03.709Z,6.63
2019-03-05T12:05:31.993Z,6.30
2019-03-05T12:08:00.255Z,4.10
2019-03-05T12:10:28.630Z,6.33
2019-03-05T12:12:56.893Z,4.53
2019-03-05T12:15:27.616Z,4.77
2019-03-05T12:17:55.874Z,4.73
2019-03-05T12:20:24.161Z,5.90
2019-03-05T12:22:52.424Z,5.27
2019-03-05T12:25:23.791Z,4.40
2019-03-05T12:27:52.251Z,9.07
2019-03-05T12:30:26.685Z,4.30
2019-03-05T12:32:55.039Z,4.33
2019-03-05T12:35:23.475Z,5.30
2019-03-05T12:37:51.799Z,4.43
2019-03-05T12:40:21.233Z,5.90
2019-03-05T12:42:49.508Z,5.63
2019-03-05T12:45:18.919Z,4.97
2019-03-05T12:47:47.218Z,6.37
2019-03-05T12:50:21.300Z,6.77
2019-03-05T12:52:49.744Z,5.10
2019-03-05T12:55:18.198Z,8.40
2019-03-05T12:57:46.620Z,3.03
2019-03-05T13:00:20.555Z,5.37
2019-03-05T13:02:49.543Z,4.10
2019-03-05T13:05:17.970Z,3.33
2019-03-05T13:07:46.256Z,3.73
2019-03-05T13:10:25.644Z,7.90
2019-03-05T13:12:54.009Z,3.77
2019-03-05T13:15:33.314Z,6.57
2019-03-05T13:18:01.603Z,6.37
2019-03-05T13:20:29.867Z,5.67
2019-03-05T13:22:58.240Z,6.27
2019-03-05T13:25:28.624Z,6.00
2019-03-05T13:27:57.674Z,4.33
2019-03-05T13:30:30.374Z,4.37
2019-03-05T13:33:00.531Z,5.30
2019-03-05T13:35:30.482Z,4.73
2019-03-05T13:38:09.783Z,2.80
2019-03-05T13:40:40.344Z,3.67
2019-03-05T13:43:08.187Z,4.77
2019-03-05T13:45:36.459Z,3.83
2019-03-05T13:48:28.750Z,2.53
2019-03-05T13:51:23.157Z,4.53
2019-03-05T13:54:11.320Z,2.53
2019-03-05T13:56:48.728Z,3.83
2019-03-05T13:59:34.487Z,3.67
2019-03-05T14:02:02.923Z,6.63
2019-03-05T14:04:37.458Z,3.33
2019-03-05T14:07:28.239Z,2.47
2019-03-05T14:09:56.570Z,3.27
2019-03-05T14:12:24.914Z,4.83
2019-03-05T14:14:53.278Z,3.07
2019-03-05T14:17:23.319Z,3.07
2019-03-05T14:19:51.659Z,1.63
2019-03-05T14:22:19.970Z,3.00
2019-03-05T14:24:48.335Z,3.37
2019-03-05T14:27:16.666Z,2.97
2019-03-05T14:29:45.004Z,2.90
2019-03-05T14:32:13.444Z,5.07
2019-03-05T14:34:41.875Z,2.57
2019-03-05T14:37:10.120Z,4.30
2019-03-05T14:39:38.498Z,3.10
2019-03-05T14:42:07.051Z,3.93
2019-03-05T14:44:39.841Z,4.50
2019-03-05T14:47:05.911Z,3.63
2019-03-05T14:49:34.289Z,5.63
2019-03-05T14:52:02.639Z,3.63
2019-03-05T14:54:31.000Z,6.17
2019-03-05T14:56:59.368Z,4.77
2019-03-05T14:59:27.665Z,7.67
2019-03-05T15:01:56.019Z,5.80
2019-03-05T15:04:24.422Z,4.87
2019-03-05T15:06:52.736Z,4.63
2019-03-05T15:09:21.106Z,2.77
2019-03-05T15:11:49.410Z,3.57
2019-03-05T15:14:17.723Z,1.97
2019-03-05T15:16:46.068Z,4.50
2019-03-05T15:19:21.312Z,4.27
2019-03-05T15:21:44.412Z,2.23
2019-03-05T15:24:12.717Z,3.40
2019-03-05T15:26:41.050Z,5.17
2019-03-05T15:29:09.398Z,6.97
2019-03-05T15:31:37.782Z,5.37
2019-03-05T15:34:06.161Z,3.17
2019-03-05T15:36:34.513Z,4.07
2019-03-05T15:39:02.885Z,3.93
2019-03-05T15:41:31.300Z,4.50
2019-03-05T15:43:59.733Z,4.40
2019-03-05T15:46:28.114Z,6.63
2019-03-05T15:48:56.404Z,2.93
2019-03-05T15:51:24.741Z,2.80
2019-03-05T15:53:53.050Z,1.53
2019-03-05T15:56:21.327Z,3.87
2019-03-05T15:58:49.600Z,1.40
2019-03-05T16:01:22.353Z,2.13
2019-03-05T16:03:47.937Z,1.47
2019-03-05T16:06:16.205Z,3.13
2019-03-05T16:08:44.567Z,3.50
2019-03-05T16:11:12.897Z,1.97
2019-03-05T16:13:41.179Z,5.13
2019-03-05T16:16:09.477Z,1.43
2019-03-05T16:18:39.073Z,2.83
2019-03-05T16:21:07.695Z,2.97
2019-03-05T16:23:36.064Z,1.67
2019-03-05T16:26:04.549Z,3.50
2019-03-05T16:28:32.905Z,4.50
2019-03-05T16:31:11.356Z,1.47
2019-03-05T16:33:40.435Z,3.60
2019-03-05T16:36:12.865Z,3.03
2019-03-05T16:38:42.102Z,2.63
2019-03-05T16:41:27.793Z,2.73
2019-03-05T16:44:00.795Z,4.73
2019-03-05T16:46:42.559Z,3.10
2019-03-05T16:49:15.219Z,5.33
2019-03-05T16:51:54.169Z,4.13
2019-03-05T16:54:24.118Z,2.50
2019-03-05T16:56:54.023Z,6.03
2019-03-05T16:59:26.698Z,2.47
2019-03-05T17:02:02.456Z,3.50
2019-03-05T17:04:48.449Z,2.33
2019-03-05T17:07:24.188Z,3.90
2019-03-05T17:09:54.167Z,4.80
2019-03-05T17:12:22.420Z,2.50
2019-03-05T17:14:50.745Z,3.13
2019-03-05T17:17:19.070Z,3.53
2019-03-05T17:19:47.638Z,5.03
2019-03-05T17:22:15.973Z,5.37
2019-03-05T17:24:44.275Z,5.73
2019-03-05T17:27:12.595Z,3.70
2019-03-05T17:29:40.912Z,6.53
2019-03-05T17:32:09.359Z,4.53
2019-03-05T17:34:37.637Z,3.53
2019-03-05T17:37:28.958Z,3.80
2019-03-05T17:39:56.293Z,5.20
2019-03-05T17:42:24.828Z,7.60
2019-03-05T17:44:53.175Z,6.47
2019-03-05T17:47:21.438Z,7.00
2019-03-05T17:49:49.709Z,5.97
2019-03-05T17:52:18.014Z,4.83
2019-03-05T17:54:46.293Z,6.30
2019-03-05T17:57:14.583Z,5.03
2019-03-05T17:59:42.923Z,8.50
2019-03-05T18:02:11.269Z,4.23
2019-03-05T18:04:39.543Z,7.93
2019-03-05T18:07:07.824Z,5.10
2019-03-05T18:09:36.135Z,5.43
2019-03-05T18:12:04.474Z,5.37
2019-03-05T18:14:32.759Z,9.53
2019-03-05T18:17:01.110Z,31.57
2019-03-05T18:19:29.500Z,25.63
2019-03-05T18:21:57.795Z,19.00
2019-03-05T18:24:26.045Z,8.50
2019-03-05T18:26:54.357Z,10.53
2019-03-05T18:29:22.715Z,13.10
2019-03-05T18:31:51.192Z,11.87
2019-03-05T18:34:19.487Z,11.83
2019-03-05T18:36:47.753Z,8.97
2019-03-05T18:39:16.112Z,9.17
2019-03-05T18:41:44.461Z,11.40
2019-03-05T18:44:12.908Z,11.80
2019-03-05T18:46:41.248Z,10.47
2019-03-05T18:49:09.695Z,11.23
2019-03-05T18:51:38.088Z,9.17
2019-03-05T18:54:06.379Z,10.37
2019-03-05T18:56:34.954Z,13.10
2019-03-05T18:59:03.287Z,8.73
2019-03-05T19:01:31.637Z,8.27
2019-03-05T19:03:59.943Z,10.07
2019-03-05T19:06:28.239Z,9.53
2019-03-05T19:08:56.582Z,8.00
2019-03-05T19:11:24.949Z,16.83
2019-03-05T19:13:53.239Z,15.07
2019-03-05T19:16:21.566Z,15.80
2019-03-05T19:18:49.908Z,10.30
2019-03-05T19:21:18.277Z,8.30
2019-03-05T19:23:46.653Z,8.97
2019-03-05T19:26:15.073Z,10.10
2019-03-05T19:28:43.372Z,8.63
2019-03-05T19:31:11.757Z,12.60
2019-03-05T19:33:41.031Z,24.03
2019-03-05T19:36:09.303Z,22.80
2019-03-05T19:38:37.666Z,15.47
2019-03-05T19:41:06.006Z,13.07
2019-03-05T19:43:34.360Z,14.93
2019-03-05T19:46:02.703Z,11.93
2019-03-05T19:48:31.128Z,11.70
2019-03-05T19:50:59.503Z,11.80
2019-03-05T19:53:27.868Z,12.20
2019-03-05T19:55:56.151Z,12.43
2019-03-05T19:58:24.493Z,15.27
2019-03-05T20:01:03.712Z,12.70
2019-03-05T20:03:32.129Z,11.17
2019-03-05T20:06:00.502Z,10.03
2019-03-05T20:08:28.821Z,11.87
2019-03-05T20:10:57.373Z,12.83
2019-03-05T20:13:25.674Z,12.40
2019-03-05T20:15:54.043Z,12.33
2019-03-05T20:18:22.327Z,11.50
2019-03-05T20:20:50.633Z,11.77
2019-03-05T20:23:18.970Z,10.50
2019-03-05T20:25:47.429Z,9.93
2019-03-05T20:28:15.778Z,11.80
2019-03-05T20:30:44.057Z,9.77
2019-03-05T20:33:12.418Z,9.03
2019-03-05T20:35:40.715Z,12.07
2019-03-05T20:38:09.012Z,10.67
2019-03-05T20:40:37.383Z,14.90
2019-03-05T20:43:05.804Z,14.93
2019-03-05T20:45:39.998Z,16.47
2019-03-05T20:48:08.287Z,10.87
2019-03-05T20:50:36.582Z,16.80
2019-03-05T20:53:04.875Z,10.87
2019-03-05T20:55:33.214Z,10.63
2019-03-05T20:58:01.613Z,12.83
2019-03-05T21:00:33.238Z,13.37
2019-03-05T21:03:06.471Z,14.97
2019-03-05T21:05:39.854Z,12.87
2019-03-05T21:08:08.214Z,10.50
2019-03-05T21:10:36.523Z,12.10
2019-03-05T21:13:04.888Z,13.30
2019-03-05T21:15:34.525Z,13.33
2019-03-05T21:18:04.808Z,15.27
2019-03-05T21:20:33.124Z,13.87
2019-03-05T21:23:01.483Z,14.40
2019-03-05T21:25:30.022Z,12.60
2019-03-05T21:27:58.314Z,15.50
2019-03-05T21:30:27.535Z,16.13
2019-03-05T21:32:56.031Z,14.03
2019-03-05T21:35:24.363Z,15.87
2019-03-05T21:37:52.998Z,17.90
2019-03-05T21:40:30.766Z,15.97
2019-03-05T21:42:59.119Z,18.27
2019-03-05T21:45:38.610Z,16.63
2019-03-05T21:48:06.943Z,20.00
2019-03-05T21:50:35.273Z,17.10
2019-03-05T21:53:03.761Z,16.67
2019-03-05T21:55:32.111Z,19.53
2019-03-05T21:58:00.411Z,17.93
2019-03-05T22:00:37.656Z,19.23
2019-03-05T22:03:06.162Z,21.40
2019-03-05T22:05:34.515Z,17.93
2019-03-05T22:08:02.831Z,18.00
2019-03-05T22:10:31.158Z,16.90
2019-03-05T22:12:59.427Z,15.23
2019-03-05T22:15:29.114Z,18.40
2019-03-05T22:17:57.460Z,14.63
2019-03-05T22:20:25.832Z,16.17
2019-03-05T22:22:54.102Z,15.37
2019-03-05T22:25:23.117Z,14.30
2019-03-05T22:27:51.378Z,16.10
2019-03-05T22:30:31.392Z,14.70
2019-03-05T22:32:59.658Z,14.53
2019-03-05T22:35:27.970Z,14.83
2019-03-05T22:37:56.226Z,15.60
2019-03-05T22:40:25.127Z,17.60
2019-03-05T22:42:53.440Z,15.90
2019-03-05T22:45:29.114Z,20.20
2019-03-05T22:47:57.481Z,19.70
2019-03-05T22:50:25.757Z,18.10
2019-03-05T22:52:54.072Z,17.13
2019-03-05T22:55:22.358Z,19.03
2019-03-05T22:57:50.666Z,17.60
2019-03-05T23:00:23.844Z,18.17
2019-03-05T23:02:52.204Z,18.70
2019-03-05T23:05:20.466Z,18.40
2019-03-05T23:07:48.782Z,19.37
2019-03-05T23:10:17.311Z,19.83
2019-03-05T23:12:45.768Z,16.80
2019-03-05T23:15:15.643Z,19.90
2019-03-05T23:17:44.022Z,18.40
2019-03-05T23:20:16.324Z,19.77
2019-03-05T23:22:44.898Z,19.37
2019-03-05T23:25:14.607Z,18.43
2019-03-05T23:27:42.967Z,18.47
2019-03-05T23:30:18.547Z,21.03
2019-03-05T23:32:54.172Z,19.00
2019-03-05T23:35:22.451Z,23.80
2019-03-05T23:51:43.012Z,14.93
2019-03-05T23:54:11.360Z,19.70
2019-03-05T23:56:39.728Z,16.77
2019-03-05T23:59:08.174Z,20.40
